sensor_id;sensor_type;location;lat;lon;timestamp;pressure;altitude;pressure_sealevel;temperature;humidity
79465;BME280;68932;47.410;8.232;2024-03-29T00:01:11;95142.40;;;6.01;66.78
79465;BME280;68932;47.410;8.232;2024-03-29T00:03:39;95146.85;;;5.98;66.68
79465;BME280;68932;47.410;8.232;2024-03-29T00:06:07;95140.86;;;5.94;66.72
79465;BME280;68932;47.410;8.232;2024-03-29T00:08:35;95136.83;;;5.92;66.78
79465;BME280;68932;47.410;8.232;2024-03-29T00:11:04;95128.05;;;5.91;66.87
79465;BME280;68932;47.410;8.232;2024-03-29T00:13:32;95120.59;;;5.90;66.83
79465;BME280;68932;47.410;8.232;2024-03-29T00:16:01;95109.85;;;5.90;66.80
79465;BME280;68932;47.410;8.232;2024-03-29T00:18:29;95097.95;;;5.89;66.78
79465;BME280;68932;47.410;8.232;2024-03-29T00:20:57;95094.00;;;5.88;66.91
79465;BME280;68932;47.410;8.232;2024-03-29T00:23:25;95091.27;;;5.88;66.84
79465;BME280;68932;47.410;8.232;2024-03-29T00:25:53;95086.67;;;5.86;66.81
79465;BME280;68932;47.410;8.232;2024-03-29T00:28:21;95085.91;;;5.87;66.88
79465;BME280;68932;47.410;8.232;2024-03-29T00:30:49;95079.67;;;5.87;66.78
79465;BME280;68932;47.410;8.232;2024-03-29T00:33:17;95069.19;;;5.87;66.67
79465;BME280;68932;47.410;8.232;2024-03-29T00:35:45;95062.65;;;5.87;66.64
79465;BME280;68932;47.410;8.232;2024-03-29T00:38:13;95061.94;;;5.87;66.79
79465;BME280;68932;47.410;8.232;2024-03-29T00:40:41;95061.50;;;5.86;66.71
79465;BME280;68932;47.410;8.232;2024-03-29T00:43:10;95052.85;;;5.86;66.62
79465;BME280;68932;47.410;8.232;2024-03-29T00:45:38;95047.36;;;5.84;66.56
79465;BME280;68932;47.410;8.232;2024-03-29T00:48:07;95051.20;;;5.82;66.62
79465;BME280;68932;47.410;8.232;2024-03-29T00:50:35;95048.58;;;5.78;66.54
79465;BME280;68932;47.410;8.232;2024-03-29T00:53:04;95042.04;;;5.75;66.68
79465;BME280;68932;47.410;8.232;2024-03-29T00:55:32;95042.55;;;5.72;66.72
79465;BME280;68932;47.410;8.232;2024-03-29T00:58:00;95036.61;;;5.68;66.83
79465;BME280;68932;47.410;8.232;2024-03-29T01:00:28;95038.23;;;5.66;66.94
79465;BME280;68932;47.410;8.232;2024-03-29T01:02:56;95030.20;;;5.64;67.13
79465;BME280;68932;47.410;8.232;2024-03-29T01:05:24;95018.98;;;5.60;67.25
79465;BME280;68932;47.410;8.232;2024-03-29T01:07:52;95021.38;;;5.58;67.47
79465;BME280;68932;47.410;8.232;2024-03-29T01:10:20;95031.25;;;5.56;67.66
79465;BME280;68932;47.410;8.232;2024-03-29T01:12:48;95040.90;;;5.55;67.78
79465;BME280;68932;47.410;8.232;2024-03-29T01:15:16;95044.73;;;5.53;67.99
79465;BME280;68932;47.410;8.232;2024-03-29T01:17:44;95038.34;;;5.53;68.11
79465;BME280;68932;47.410;8.232;2024-03-29T01:20:13;95037.31;;;5.52;68.14
79465;BME280;68932;47.410;8.232;2024-03-29T01:22:41;95037.91;;;5.51;68.10
79465;BME280;68932;47.410;8.232;2024-03-29T01:25:10;95053.19;;;5.51;68.21
79465;BME280;68932;47.410;8.232;2024-03-29T01:27:38;95061.17;;;5.52;68.17
79465;BME280;68932;47.410;8.232;2024-03-29T01:30:09;95059.75;;;5.50;68.28
79465;BME280;68932;47.410;8.232;2024-03-29T01:32:37;95061.61;;;5.46;68.30
79465;BME280;68932;47.410;8.232;2024-03-29T01:35:06;95057.89;;;5.45;68.44
79465;BME280;68932;47.410;8.232;2024-03-29T01:37:35;95054.36;;;5.45;68.22
79465;BME280;68932;47.410;8.232;2024-03-29T01:40:03;95058.06;;;5.45;68.15
79465;BME280;68932;47.410;8.232;2024-03-29T01:42:31;95058.39;;;5.45;68.21
79465;BME280;68932;47.410;8.232;2024-03-29T01:44:59;95057.67;;;5.45;68.26
79465;BME280;68932;47.410;8.232;2024-03-29T01:47:28;95064.08;;;5.45;68.39
79465;BME280;68932;47.410;8.232;2024-03-29T01:49:56;95065.79;;;5.44;68.61
79465;BME280;68932;47.410;8.232;2024-03-29T01:52:25;95061.21;;;5.40;68.89
79465;BME280;68932;47.410;8.232;2024-03-29T01:54:53;95069.73;;;5.37;68.99
79465;BME280;68932;47.410;8.232;2024-03-29T01:57:21;95070.14;;;5.34;69.06
79465;BME280;68932;47.410;8.232;2024-03-29T01:59:50;95062.98;;;5.30;69.17
79465;BME280;68932;47.410;8.232;2024-03-29T02:02:19;95056.67;;;5.29;69.30
79465;BME280;68932;47.410;8.232;2024-03-29T02:04:47;95059.23;;;5.27;69.38
79465;BME280;68932;47.410;8.232;2024-03-29T02:07:16;95055.15;;;5.26;69.43
79465;BME280;68932;47.410;8.232;2024-03-29T02:09:44;95058.42;;;5.26;69.37
79465;BME280;68932;47.410;8.232;2024-03-29T02:12:12;95059.11;;;5.24;69.45
79465;BME280;68932;47.410;8.232;2024-03-29T02:14:40;95055.52;;;5.21;69.54
79465;BME280;68932;47.410;8.232;2024-03-29T02:17:08;95039.23;;;5.18;69.56
79465;BME280;68932;47.410;8.232;2024-03-29T02:19:36;95036.63;;;5.16;69.49
79465;BME280;68932;47.410;8.232;2024-03-29T02:22:05;95032.69;;;5.15;69.52
79465;BME280;68932;47.410;8.232;2024-03-29T02:24:33;95026.23;;;5.13;69.55
79465;BME280;68932;47.410;8.232;2024-03-29T02:27:02;95020.71;;;5.10;69.53
79465;BME280;68932;47.410;8.232;2024-03-29T02:29:31;95017.71;;;5.09;69.66
79465;BME280;68932;47.410;8.232;2024-03-29T02:31:59;95028.52;;;5.08;69.67
79465;BME280;68932;47.410;8.232;2024-03-29T02:34:27;95039.63;;;5.08;69.71
79465;BME280;68932;47.410;8.232;2024-03-29T02:36:55;95041.06;;;5.10;69.86
79465;BME280;68932;47.410;8.232;2024-03-29T02:39:23;95041.77;;;5.12;69.93
79465;BME280;68932;47.410;8.232;2024-03-29T02:41:52;95041.73;;;5.15;70.13
79465;BME280;68932;47.410;8.232;2024-03-29T02:44:20;95043.04;;;5.18;70.15
79465;BME280;68932;47.410;8.232;2024-03-29T02:46:48;95048.98;;;5.22;70.10
79465;BME280;68932;47.410;8.232;2024-03-29T02:49:16;95045.59;;;5.26;70.20
79465;BME280;68932;47.410;8.232;2024-03-29T02:51:44;95055.96;;;5.29;70.13
79465;BME280;68932;47.410;8.232;2024-03-29T02:54:12;95060.95;;;5.32;70.23
79465;BME280;68932;47.410;8.232;2024-03-29T02:56:40;95062.63;;;5.33;70.23
79465;BME280;68932;47.410;8.232;2024-03-29T02:59:08;95061.83;;;5.34;70.16
79465;BME280;68932;47.410;8.232;2024-03-29T03:01:36;95057.98;;;5.34;70.02
79465;BME280;68932;47.410;8.232;2024-03-29T03:04:05;95058.74;;;5.31;69.97
79465;BME280;68932;47.410;8.232;2024-03-29T03:06:33;95056.19;;;5.28;70.12
79465;BME280;68932;47.410;8.232;2024-03-29T03:09:01;95052.86;;;5.27;70.33
79465;BME280;68932;47.410;8.232;2024-03-29T03:11:29;95057.67;;;5.27;70.39
79465;BME280;68932;47.410;8.232;2024-03-29T03:13:57;95062.48;;;5.28;70.48
79465;BME280;68932;47.410;8.232;2024-03-29T03:16:25;95066.55;;;5.29;70.50
79465;BME280;68932;47.410;8.232;2024-03-29T03:18:53;95061.77;;;5.30;70.46
79465;BME280;68932;47.410;8.232;2024-03-29T03:21:21;95060.54;;;5.33;70.49
79465;BME280;68932;47.410;8.232;2024-03-29T03:23:49;95065.92;;;5.33;70.53
79465;BME280;68932;47.410;8.232;2024-03-29T03:26:17;95063.02;;;5.32;70.66
79465;BME280;68932;47.410;8.232;2024-03-29T03:28:45;95054.52;;;5.32;70.61
79465;BME280;68932;47.410;8.232;2024-03-29T03:31:13;95057.23;;;5.33;70.71
79465;BME280;68932;47.410;8.232;2024-03-29T03:33:42;95068.08;;;5.34;70.78
79465;BME280;68932;47.410;8.232;2024-03-29T03:36:10;95073.77;;;5.32;70.66
79465;BME280;68932;47.410;8.232;2024-03-29T03:38:38;95072.02;;;5.33;70.72
79465;BME280;68932;47.410;8.232;2024-03-29T03:41:06;95072.81;;;5.36;70.81
79465;BME280;68932;47.410;8.232;2024-03-29T03:43:34;95069.86;;;5.36;70.72
79465;BME280;68932;47.410;8.232;2024-03-29T03:46:03;95065.10;;;5.32;70.60
79465;BME280;68932;47.410;8.232;2024-03-29T03:48:31;95050.75;;;5.27;70.43
79465;BME280;68932;47.410;8.232;2024-03-29T03:50:59;95046.88;;;5.25;70.53
79465;BME280;68932;47.410;8.232;2024-03-29T03:53:27;95050.79;;;5.24;70.50
79465;BME280;68932;47.410;8.232;2024-03-29T03:55:55;95059.05;;;5.20;70.42
79465;BME280;68932;47.410;8.232;2024-03-29T03:58:24;95065.64;;;5.13;70.43
79465;BME280;68932;47.410;8.232;2024-03-29T04:00:52;95057.16;;;5.08;70.45
79465;BME280;68932;47.410;8.232;2024-03-29T04:03:20;95061.89;;;5.08;70.56
79465;BME280;68932;47.410;8.232;2024-03-29T04:05:48;95063.92;;;5.01;70.63
79465;BME280;68932;47.410;8.232;2024-03-29T04:08:16;95062.73;;;4.96;70.75
79465;BME280;68932;47.410;8.232;2024-03-29T04:10:44;95051.39;;;4.97;70.83
79465;BME280;68932;47.410;8.232;2024-03-29T04:13:12;95043.80;;;4.99;70.99
79465;BME280;68932;47.410;8.232;2024-03-29T04:15:40;95053.61;;;5.00;70.95
79465;BME280;68932;47.410;8.232;2024-03-29T04:18:08;95069.05;;;5.03;71.10
79465;BME280;68932;47.410;8.232;2024-03-29T04:20:36;95066.16;;;5.02;71.10
79465;BME280;68932;47.410;8.232;2024-03-29T04:23:06;95055.45;;;5.03;71.13
79465;BME280;68932;47.410;8.232;2024-03-29T04:25:34;95042.33;;;5.05;71.09
79465;BME280;68932;47.410;8.232;2024-03-29T04:28:03;95045.40;;;5.07;71.20
79465;BME280;68932;47.410;8.232;2024-03-29T04:30:31;95057.17;;;5.10;71.35
79465;BME280;68932;47.410;8.232;2024-03-29T04:32:59;95054.77;;;5.12;71.25
79465;BME280;68932;47.410;8.232;2024-03-29T04:35:27;95064.32;;;5.12;71.18
79465;BME280;68932;47.410;8.232;2024-03-29T04:37:55;95091.96;;;5.14;71.24
79465;BME280;68932;47.410;8.232;2024-03-29T04:40:23;95114.98;;;5.13;71.23
79465;BME280;68932;47.410;8.232;2024-03-29T04:42:51;95135.79;;;5.06;71.22
79465;BME280;68932;47.410;8.232;2024-03-29T04:45:19;95142.14;;;5.00;71.22
79465;BME280;68932;47.410;8.232;2024-03-29T04:47:47;95156.23;;;4.97;71.39
79465;BME280;68932;47.410;8.232;2024-03-29T04:50:16;95148.26;;;4.95;71.51
79465;BME280;68932;47.410;8.232;2024-03-29T04:52:44;95149.23;;;4.93;71.56
79465;BME280;68932;47.410;8.232;2024-03-29T04:55:12;95125.23;;;4.94;71.46
79465;BME280;68932;47.410;8.232;2024-03-29T04:57:40;95111.77;;;4.98;71.37
79465;BME280;68932;47.410;8.232;2024-03-29T05:00:11;95091.88;;;5.01;71.31
79465;BME280;68932;47.410;8.232;2024-03-29T05:02:39;95112.41;;;5.05;71.33
79465;BME280;68932;47.410;8.232;2024-03-29T05:05:07;95154.23;;;5.08;71.23
79465;BME280;68932;47.410;8.232;2024-03-29T05:07:35;95123.45;;;5.11;71.20
79465;BME280;68932;47.410;8.232;2024-03-29T05:10:04;95118.06;;;5.16;71.33
79465;BME280;68932;47.410;8.232;2024-03-29T05:12:32;95069.47;;;5.20;71.23
79465;BME280;68932;47.410;8.232;2024-03-29T05:15:00;95033.94;;;5.24;71.30
79465;BME280;68932;47.410;8.232;2024-03-29T05:17:28;95006.02;;;5.28;71.55
79465;BME280;68932;47.410;8.232;2024-03-29T05:19:56;95018.44;;;5.29;71.45
79465;BME280;68932;47.410;8.232;2024-03-29T05:22:25;95022.07;;;5.29;71.57
79465;BME280;68932;47.410;8.232;2024-03-29T05:24:55;95016.30;;;5.28;71.67
79465;BME280;68932;47.410;8.232;2024-03-29T05:27:23;95035.70;;;5.24;71.74
79465;BME280;68932;47.410;8.232;2024-03-29T05:29:51;95041.39;;;5.22;71.73
79465;BME280;68932;47.410;8.232;2024-03-29T05:32:19;95072.65;;;5.24;71.83
79465;BME280;68932;47.410;8.232;2024-03-29T05:34:47;95098.71;;;5.24;71.89
79465;BME280;68932;47.410;8.232;2024-03-29T05:37:15;95098.41;;;5.26;71.90
79465;BME280;68932;47.410;8.232;2024-03-29T05:39:43;95097.04;;;5.30;71.86
79465;BME280;68932;47.410;8.232;2024-03-29T05:42:11;95096.52;;;5.34;71.83
79465;BME280;68932;47.410;8.232;2024-03-29T05:44:39;95097.13;;;5.38;71.70
79465;BME280;68932;47.410;8.232;2024-03-29T05:47:07;95103.93;;;5.42;71.50
79465;BME280;68932;47.410;8.232;2024-03-29T05:49:35;95106.85;;;5.45;71.30
79465;BME280;68932;47.410;8.232;2024-03-29T05:52:04;95105.23;;;5.48;71.28
79465;BME280;68932;47.410;8.232;2024-03-29T05:54:32;95107.88;;;5.50;71.39
79465;BME280;68932;47.410;8.232;2024-03-29T05:57:00;95110.44;;;5.53;71.39
79465;BME280;68932;47.410;8.232;2024-03-29T05:59:28;95109.44;;;5.57;71.45
79465;BME280;68932;47.410;8.232;2024-03-29T06:01:56;95095.63;;;5.60;71.52
79465;BME280;68932;47.410;8.232;2024-03-29T06:04:24;95085.67;;;5.63;71.37
79465;BME280;68932;47.410;8.232;2024-03-29T06:06:52;95075.16;;;5.67;71.38
79465;BME280;68932;47.410;8.232;2024-03-29T06:09:20;95077.70;;;5.68;71.56
79465;BME280;68932;47.410;8.232;2024-03-29T06:11:48;95080.55;;;5.67;71.72
79465;BME280;68932;47.410;8.232;2024-03-29T06:14:16;95079.08;;;5.68;71.79
79465;BME280;68932;47.410;8.232;2024-03-29T06:16:45;95086.48;;;5.69;71.91
79465;BME280;68932;47.410;8.232;2024-03-29T06:19:13;95075.67;;;5.71;71.99
79465;BME280;68932;47.410;8.232;2024-03-29T06:21:41;95081.36;;;5.72;71.90
79465;BME280;68932;47.410;8.232;2024-03-29T06:24:10;95074.73;;;5.72;71.91
79465;BME280;68932;47.410;8.232;2024-03-29T06:26:38;95074.92;;;5.74;71.87
79465;BME280;68932;47.410;8.232;2024-03-29T06:29:06;95067.94;;;5.77;71.73
79465;BME280;68932;47.410;8.232;2024-03-29T06:31:34;95074.34;;;5.82;71.88
79465;BME280;68932;47.410;8.232;2024-03-29T06:34:02;95071.50;;;5.87;71.94
79465;BME280;68932;47.410;8.232;2024-03-29T06:36:30;95067.59;;;5.88;71.78
79465;BME280;68932;47.410;8.232;2024-03-29T06:38:58;95071.06;;;5.88;71.49
79465;BME280;68932;47.410;8.232;2024-03-29T06:41:26;95080.70;;;5.87;71.69
79465;BME280;68932;47.410;8.232;2024-03-29T06:43:54;95086.70;;;5.91;71.61
79465;BME280;68932;47.410;8.232;2024-03-29T06:46:22;95085.13;;;5.93;71.40
79465;BME280;68932;47.410;8.232;2024-03-29T06:48:50;95093.23;;;5.91;71.07
79465;BME280;68932;47.410;8.232;2024-03-29T06:51:18;95095.44;;;5.92;71.32
79465;BME280;68932;47.410;8.232;2024-03-29T06:53:46;95077.55;;;5.97;71.19
79465;BME280;68932;47.410;8.232;2024-03-29T06:56:14;95084.77;;;6.02;71.28
79465;BME280;68932;47.410;8.232;2024-03-29T06:58:43;95071.01;;;6.09;71.29
79465;BME280;68932;47.410;8.232;2024-03-29T07:01:11;95068.96;;;6.18;71.66
79465;BME280;68932;47.410;8.232;2024-03-29T07:03:39;95058.10;;;6.25;71.33
79465;BME280;68932;47.410;8.232;2024-03-29T07:06:07;95044.35;;;6.34;71.13
79465;BME280;68932;47.410;8.232;2024-03-29T07:08:36;95042.89;;;6.44;71.16
79465;BME280;68932;47.410;8.232;2024-03-29T07:11:04;95039.63;;;6.54;71.20
79465;BME280;68932;47.410;8.232;2024-03-29T07:13:32;95044.88;;;6.60;70.74
79465;BME280;68932;47.410;8.232;2024-03-29T07:16:01;95046.67;;;6.66;70.42
79465;BME280;68932;47.410;8.232;2024-03-29T07:18:29;95045.03;;;6.71;70.32
79465;BME280;68932;47.410;8.232;2024-03-29T07:20:57;95049.05;;;6.75;70.16
79465;BME280;68932;47.410;8.232;2024-03-29T07:23:26;95049.63;;;6.78;70.25
79465;BME280;68932;47.410;8.232;2024-03-29T07:26:01;95048.39;;;6.84;70.02
79465;BME280;68932;47.410;8.232;2024-03-29T07:28:30;95053.94;;;6.86;70.05
79465;BME280;68932;47.410;8.232;2024-03-29T07:31:04;95050.54;;;6.87;69.98
79465;BME280;68932;47.410;8.232;2024-03-29T07:33:32;95043.19;;;6.92;70.00
79465;BME280;68932;47.410;8.232;2024-03-29T07:36:01;95039.36;;;6.95;69.92
79465;BME280;68932;47.410;8.232;2024-03-29T07:38:30;95038.81;;;7.00;69.96
79465;BME280;68932;47.410;8.232;2024-03-29T07:40:58;95041.30;;;7.06;70.06
79465;BME280;68932;47.410;8.232;2024-03-29T07:43:34;95054.77;;;7.12;70.20
79465;BME280;68932;47.410;8.232;2024-03-29T07:46:03;95061.50;;;7.18;69.86
79465;BME280;68932;47.410;8.232;2024-03-29T07:48:31;95055.95;;;7.23;69.53
79465;BME280;68932;47.410;8.232;2024-03-29T07:50:59;95058.91;;;7.29;69.48
79465;BME280;68932;47.410;8.232;2024-03-29T07:53:27;95054.77;;;7.33;69.19
79465;BME280;68932;47.410;8.232;2024-03-29T07:55:55;95051.67;;;7.36;68.55
79465;BME280;68932;47.410;8.232;2024-03-29T07:58:24;95058.14;;;7.42;68.27
79465;BME280;68932;47.410;8.232;2024-03-29T08:00:53;95066.95;;;7.51;68.29
79465;BME280;68932;47.410;8.232;2024-03-29T08:03:21;95088.55;;;7.60;68.28
79465;BME280;68932;47.410;8.232;2024-03-29T08:05:58;95086.57;;;7.69;68.18
79465;BME280;68932;47.410;8.232;2024-03-29T08:08:27;95084.48;;;7.79;67.75
79465;BME280;68932;47.410;8.232;2024-03-29T08:10:55;95092.16;;;7.88;67.24
79465;BME280;68932;47.410;8.232;2024-03-29T08:13:25;95100.89;;;7.93;66.57
79465;BME280;68932;47.410;8.232;2024-03-29T08:15:59;95104.42;;;8.01;66.83
79465;BME280;68932;47.410;8.232;2024-03-29T08:18:28;95106.04;;;8.07;66.15
79465;BME280;68932;47.410;8.232;2024-03-29T08:20:56;95102.17;;;8.13;66.00
79465;BME280;68932;47.410;8.232;2024-03-29T08:23:24;95093.78;;;8.22;65.72
79465;BME280;68932;47.410;8.232;2024-03-29T08:25:53;95085.06;;;8.30;65.14
79465;BME280;68932;47.410;8.232;2024-03-29T08:28:21;95075.52;;;8.37;64.67
79465;BME280;68932;47.410;8.232;2024-03-29T08:30:58;95065.72;;;8.43;64.44
79465;BME280;68932;47.410;8.232;2024-03-29T08:33:27;95062.56;;;8.52;64.20
79465;BME280;68932;47.410;8.232;2024-03-29T08:35:55;95050.48;;;8.58;64.66
79465;BME280;68932;47.410;8.232;2024-03-29T08:38:23;95057.15;;;8.65;64.48
79465;BME280;68932;47.410;8.232;2024-03-29T08:40:51;95070.26;;;8.73;63.96
79465;BME280;68932;47.410;8.232;2024-03-29T08:43:19;95055.43;;;8.83;63.43
79465;BME280;68932;47.410;8.232;2024-03-29T08:45:47;95041.31;;;8.92;63.73
79465;BME280;68932;47.410;8.232;2024-03-29T08:48:15;95048.41;;;9.03;63.38
79465;BME280;68932;47.410;8.232;2024-03-29T08:50:43;95062.53;;;9.09;62.05
79465;BME280;68932;47.410;8.232;2024-03-29T08:53:11;95061.63;;;9.11;61.30
79465;BME280;68932;47.410;8.232;2024-03-29T08:55:39;95062.70;;;9.18;61.12
79465;BME280;68932;47.410;8.232;2024-03-29T08:58:08;95090.23;;;9.28;60.67
79465;BME280;68932;47.410;8.232;2024-03-29T09:00:36;95102.02;;;9.40;60.80
79465;BME280;68932;47.410;8.232;2024-03-29T09:03:04;95096.94;;;9.57;61.37
79465;BME280;68932;47.410;8.232;2024-03-29T09:05:32;95115.27;;;9.77;61.92
79465;BME280;68932;47.410;8.232;2024-03-29T09:08:00;95120.60;;;9.94;60.73
79465;BME280;68932;47.410;8.232;2024-03-29T09:10:28;95097.95;;;10.09;59.71
79465;BME280;68932;47.410;8.232;2024-03-29T09:12:56;95071.96;;;10.23;60.04
79465;BME280;68932;47.410;8.232;2024-03-29T09:15:24;95098.23;;;10.34;60.09
79465;BME280;68932;47.410;8.232;2024-03-29T09:17:52;95124.27;;;10.42;60.08
79465;BME280;68932;47.410;8.232;2024-03-29T09:20:20;95091.20;;;10.51;60.22
79465;BME280;68932;47.410;8.232;2024-03-29T09:22:51;95078.27;;;10.59;59.91
79465;BME280;68932;47.410;8.232;2024-03-29T09:25:20;95081.80;;;10.68;59.21
79465;BME280;68932;47.410;8.232;2024-03-29T09:27:48;95073.44;;;10.77;58.45
79465;BME280;68932;47.410;8.232;2024-03-29T09:30:16;95056.95;;;10.85;57.59
79465;BME280;68932;47.410;8.232;2024-03-29T09:32:44;95037.52;;;10.93;57.50
79465;BME280;68932;47.410;8.232;2024-03-29T09:35:13;95026.41;;;11.03;57.04
79465;BME280;68932;47.410;8.232;2024-03-29T09:37:41;95022.31;;;11.12;56.35
79465;BME280;68932;47.410;8.232;2024-03-29T09:40:12;95014.69;;;11.18;56.25
79465;BME280;68932;47.410;8.232;2024-03-29T09:42:40;95019.81;;;11.27;56.83
79465;BME280;68932;47.410;8.232;2024-03-29T09:45:11;95056.07;;;11.36;56.24
79465;BME280;68932;47.410;8.232;2024-03-29T09:47:39;95065.15;;;11.40;55.74
79465;BME280;68932;47.410;8.232;2024-03-29T09:50:10;95052.86;;;11.44;55.79
79465;BME280;68932;47.410;8.232;2024-03-29T09:52:38;95053.59;;;11.47;54.02
79465;BME280;68932;47.410;8.232;2024-03-29T09:55:08;95079.48;;;11.49;54.02
79465;BME280;68932;47.410;8.232;2024-03-29T09:57:37;95071.91;;;11.55;54.07
79465;BME280;68932;47.410;8.232;2024-03-29T10:00:07;95067.45;;;11.65;54.60
79465;BME280;68932;47.410;8.232;2024-03-29T10:02:36;95069.10;;;11.74;54.06
79465;BME280;68932;47.410;8.232;2024-03-29T10:05:08;95076.64;;;11.88;53.84
79465;BME280;68932;47.410;8.232;2024-03-29T10:07:37;95087.83;;;12.03;54.09
79465;BME280;68932;47.410;8.232;2024-03-29T10:10:07;95087.39;;;12.12;54.20
79465;BME280;68932;47.410;8.232;2024-03-29T10:12:35;95083.20;;;12.19;55.56
79465;BME280;68932;47.410;8.232;2024-03-29T10:15:05;95082.60;;;12.23;55.99
79465;BME280;68932;47.410;8.232;2024-03-29T10:17:33;95084.12;;;12.27;56.39
79465;BME280;68932;47.410;8.232;2024-03-29T10:20:02;95079.54;;;12.34;56.74
79465;BME280;68932;47.410;8.232;2024-03-29T10:22:30;95054.97;;;12.42;57.23
79465;BME280;68932;47.410;8.232;2024-03-29T10:24:59;95043.20;;;12.49;55.78
79465;BME280;68932;47.410;8.232;2024-03-29T10:27:28;95079.76;;;12.54;55.51
79465;BME280;68932;47.410;8.232;2024-03-29T10:29:56;95082.84;;;12.60;55.39
79465;BME280;68932;47.410;8.232;2024-03-29T10:32:24;95093.90;;;12.60;55.00
79465;BME280;68932;47.410;8.232;2024-03-29T10:34:52;95087.58;;;12.58;55.34
79465;BME280;68932;47.410;8.232;2024-03-29T10:37:20;95056.21;;;12.61;56.51
79465;BME280;68932;47.410;8.232;2024-03-29T10:39:49;95031.05;;;12.69;57.03
79465;BME280;68932;47.410;8.232;2024-03-29T10:42:19;95017.26;;;12.84;56.83
79465;BME280;68932;47.410;8.232;2024-03-29T10:44:49;95008.34;;;12.98;56.17
79465;BME280;68932;47.410;8.232;2024-03-29T10:47:19;95008.57;;;13.14;55.62
79465;BME280;68932;47.410;8.232;2024-03-29T10:49:50;95015.84;;;13.28;54.74
79465;BME280;68932;47.410;8.232;2024-03-29T10:52:19;95027.23;;;13.42;53.84
79465;BME280;68932;47.410;8.232;2024-03-29T10:54:49;95027.02;;;13.55;52.34
79465;BME280;68932;47.410;8.232;2024-03-29T10:57:22;95030.55;;;13.70;52.72
79465;BME280;68932;47.410;8.232;2024-03-29T10:59:58;95031.66;;;13.85;52.20
79465;BME280;68932;47.410;8.232;2024-03-29T11:02:29;95021.63;;;13.99;51.25
79465;BME280;68932;47.410;8.232;2024-03-29T11:05:01;95014.98;;;14.09;51.06
79465;BME280;68932;47.410;8.232;2024-03-29T11:07:30;95018.11;;;14.12;50.67
79465;BME280;68932;47.410;8.232;2024-03-29T11:10:00;95017.39;;;14.11;50.33
79465;BME280;68932;47.410;8.232;2024-03-29T11:15:19;95015.21;;;14.13;49.14
79465;BME280;68932;47.410;8.232;2024-03-29T11:17:50;95011.99;;;14.15;49.23
79465;BME280;68932;47.410;8.232;2024-03-29T11:20:19;95003.80;;;14.16;49.11
79465;BME280;68932;47.410;8.232;2024-03-29T11:22:47;95000.83;;;14.15;49.13
79465;BME280;68932;47.410;8.232;2024-03-29T11:25:16;94999.73;;;14.19;49.66
79465;BME280;68932;47.410;8.232;2024-03-29T11:27:44;94997.81;;;14.25;50.00
79465;BME280;68932;47.410;8.232;2024-03-29T11:30:13;94999.92;;;14.31;49.82
79465;BME280;68932;47.410;8.232;2024-03-29T11:32:44;94999.90;;;14.36;49.83
79465;BME280;68932;47.410;8.232;2024-03-29T11:35:16;95002.73;;;14.46;50.36
79465;BME280;68932;47.410;8.232;2024-03-29T11:37:44;95006.30;;;14.60;50.10
79465;BME280;68932;47.410;8.232;2024-03-29T11:40:14;95001.09;;;14.73;49.34
79465;BME280;68932;47.410;8.232;2024-03-29T11:42:52;94988.39;;;14.84;48.87
79465;BME280;68932;47.410;8.232;2024-03-29T11:45:21;94981.86;;;14.97;49.39
79465;BME280;68932;47.410;8.232;2024-03-29T11:47:51;94976.52;;;15.13;49.83
79465;BME280;68932;47.410;8.232;2024-03-29T11:50:19;94969.09;;;15.26;49.06
79465;BME280;68932;47.410;8.232;2024-03-29T11:52:47;94964.97;;;15.35;48.42
79465;BME280;68932;47.410;8.232;2024-03-29T11:55:16;94965.74;;;15.43;48.30
79465;BME280;68932;47.410;8.232;2024-03-29T11:57:44;94964.48;;;15.56;47.98
79465;BME280;68932;47.410;8.232;2024-03-29T12:00:13;94962.25;;;15.69;47.97
79465;BME280;68932;47.410;8.232;2024-03-29T12:02:42;94969.27;;;15.78;46.46
79465;BME280;68932;47.410;8.232;2024-03-29T12:05:12;94973.10;;;15.82;45.69
79465;BME280;68932;47.410;8.232;2024-03-29T12:07:40;94978.74;;;15.83;44.83
79465;BME280;68932;47.410;8.232;2024-03-29T12:10:09;94981.23;;;15.83;45.87
79465;BME280;68932;47.410;8.232;2024-03-29T12:12:38;94976.73;;;15.88;46.46
79465;BME280;68932;47.410;8.232;2024-03-29T12:15:09;94979.56;;;15.93;46.73
79465;BME280;68932;47.410;8.232;2024-03-29T12:17:37;94973.64;;;15.92;46.40
79465;BME280;68932;47.410;8.232;2024-03-29T12:20:06;94968.39;;;15.95;46.71
79465;BME280;68932;47.410;8.232;2024-03-29T12:22:35;94963.61;;;15.97;46.52
79465;BME280;68932;47.410;8.232;2024-03-29T12:25:04;94967.05;;;15.98;45.57
79465;BME280;68932;47.410;8.232;2024-03-29T12:27:32;94971.77;;;16.02;45.87
79465;BME280;68932;47.410;8.232;2024-03-29T12:30:01;94981.91;;;16.09;45.57
79465;BME280;68932;47.410;8.232;2024-03-29T12:32:29;94990.50;;;16.12;45.05
79465;BME280;68932;47.410;8.232;2024-03-29T12:35:09;94989.84;;;16.16;45.65
79465;BME280;68932;47.410;8.232;2024-03-29T12:37:37;94999.73;;;16.25;46.32
79465;BME280;68932;47.410;8.232;2024-03-29T12:40:09;94995.08;;;16.34;45.91
79465;BME280;68932;47.410;8.232;2024-03-29T12:42:37;94991.33;;;16.42;45.22
79465;BME280;68932;47.410;8.232;2024-03-29T12:45:07;94984.95;;;16.48;44.80
79465;BME280;68932;47.410;8.232;2024-03-29T12:47:35;94983.67;;;16.54;44.27
79465;BME280;68932;47.410;8.232;2024-03-29T12:50:04;94974.03;;;16.61;43.74
79465;BME280;68932;47.410;8.232;2024-03-29T12:52:39;94972.36;;;16.68;43.16
79465;BME280;68932;47.410;8.232;2024-03-29T12:55:08;94965.83;;;16.71;43.09
79465;BME280;68932;47.410;8.232;2024-03-29T12:57:37;94963.23;;;16.78;42.63
79465;BME280;68932;47.410;8.232;2024-03-29T13:00:07;94964.75;;;16.85;40.20
79465;BME280;68932;47.410;8.232;2024-03-29T13:02:36;94967.88;;;16.91;39.56
79465;BME280;68932;47.410;8.232;2024-03-29T13:05:05;94968.83;;;16.96;38.89
79465;BME280;68932;47.410;8.232;2024-03-29T13:07:33;94971.73;;;17.03;39.38
79465;BME280;68932;47.410;8.232;2024-03-29T13:10:02;94970.46;;;17.09;39.32
79465;BME280;68932;47.410;8.232;2024-03-29T13:12:30;94965.52;;;17.10;39.56
79465;BME280;68932;47.410;8.232;2024-03-29T13:15:01;94958.09;;;17.19;39.47
79465;BME280;68932;47.410;8.232;2024-03-29T13:17:29;94954.73;;;17.30;39.80